Celebrity Silhouette — 9HA2583 — position and weather

sailwx.info

Track history (hours):
 
Tides and Currents Weather Stations Pressure Air Temp Water Temp Dewpoint Dewpoint Depression Visibility Wind Speed Wind Dir Waves Ship Positions

Celebrity Silhouette

Last reported at 2017-Sep-20 00:31 UTC. Time now 2017-Sep-20 00:34 UTC.
Position N 43°18' E 007°22'.

Length 319 m; draft 8.6 m.

Type: Passenger vessel. MMSI: 248939000.

Date/timePositionNaut miles runAvg speedWind from/ knotsBaromVisibWave heightAir tempDewpointWater temp
2017-Sep-20 00:31N 43°18' E 007°22'3 6.4
2017-Sep-20 00:01N 43°16' E 007°18'4257.1
2017-Sep-20 00:00N 43°12' E 007°18'4 6.6 280 / 101014.010.8 19.611.920.3
2017-Sep-19 23:26N 43°14' E 007°14'3 6.7
2017-Sep-19 22:56N 43°13' E 007°10'3 6.7
2017-Sep-19 22:31N 43°12' E 007°06'3 6.8
2017-Sep-19 22:00N 43°15' E 007°05'2 4.1
2017-Sep-19 21:30N 43°17' E 007°05'2 4.0
2017-Sep-19 20:57N 43°20' E 007°04'2 3.9
2017-Sep-19 20:30N 43°21' E 007°04'2 3.5
2017-Sep-19 19:59N 43°23' E 007°03'2 3.7
2017-Sep-19 19:30N 43°25' E 007°02'2 4.4
2017-Sep-19 19:00N 43°27' E 007°02'2 4.6
2017-Sep-19 18:30N 43°29' E 007°01'2 4.5
2017-Sep-19 18:00N 43°31' E 007°01'1 1.9
2017-Sep-19 17:30N 43°32' E 007°01'0 0.1
2017-Sep-19 17:00N 43°32' E 007°01'0 0.1
2017-Sep-19 16:30N 43°32' E 007°01'0 0.1
2017-Sep-19 16:01N 43°32' E 007°01'2135.5
2017-Sep-19 16:00N 43°30' E 007°00'2 4.7 030 / 161014.0 5.4 18.4 17.9
2017-Sep-19 15:31N 43°32' E 007°01'0 0.1
2017-Sep-19 15:01N 43°32' E 007°01'0 0.0
2017-Sep-19 14:31N 43°32' E 007°01'0 0.1
2017-Sep-19 14:00N 43°32' E 007°01'0 0.1
2017-Sep-19 13:31N 43°32' E 007°01'0 0.0
2017-Sep-19 13:01N 43°32' E 007°01'0 0.0
2017-Sep-19 12:31N 43°32' E 007°01'0 0.0
2017-Sep-19 12:01N 43°32' E 007°01'2140.9
2017-Sep-19 12:00N 43°30' E 007°00'2 4.9 110 / 71011.010.8 24.516.018.3
2017-Sep-19 11:31N 43°32' E 007°01'0 0.0
2017-Sep-19 11:01N 43°32' E 007°01'0 0.0
2017-Sep-19 10:31N 43°32' E 007°01'0 0.0
2017-Sep-19 10:01N 43°32' E 007°01'2142.7
2017-Sep-19 10:00N 43°30' E 007°00'2 4.9 230 / 51010.027.0 26.0 0.119.0
2017-Sep-19 09:31N 43°32' E 007°01'0 0.0
2017-Sep-19 09:00N 43°32' E 007°01'0 0.0
2017-Sep-19 08:30N 43°32' E 007°01'0 0.0
2017-Sep-19 08:00N 43°32' E 007°01'0 0.0
2017-Sep-19 07:30N 43°32' E 007°01'0 0.0
2017-Sep-19 07:00N 43°32' E 007°01'0 0.0
2017-Sep-19 06:30N 43°32' E 007°01'0 0.0
2017-Sep-19 06:00N 43°32' E 007°01'0 0.0
2017-Sep-19 05:30N 43°32' E 007°01'0 0.0
2017-Sep-19 05:00N 43°32' E 007°01'2166.5
2017-Sep-19 05:00N 43°30' E 007°00'2 4.8 300 / 61015.027.0 13.5 17.9
2017-Sep-19 04:30N 43°32' E 007°01'2 3.9
2017-Sep-19 04:00N 43°30' E 007°00'4 7.1
2017-Sep-19 03:30N 43°27' E 006°59'30 8.4
2017-Sep-19 00:00N 43°00' E 006°42'40 9.6 280 / 301014.0 5.4 17.3 9.721.4
2017-Sep-18 19:48N 42°57' E 005°47'617.5
2017-Sep-18 19:27N 42°59' E 005°39'817.5
2017-Sep-18 19:00N 43°00' E 005°28'917.5
2017-Sep-18 18:30N 43°04' E 005°17'917.6
2017-Sep-18 18:00N 43°10' E 005°09'816.6
2017-Sep-18 17:30N 43°17' E 005°14'510.7
2017-Sep-18 17:00N 43°21' E 005°20'3 1.5
2017-Sep-18 15:00N 43°18' E 005°18'0 0.0 230 / 101017.027.0 15.3 16.6
2017-Sep-18 12:00N 43°18' E 005°18'0 0.0 210 / 31017.0 5.4 21.012.816.6
2017-Sep-18 10:00N 43°18' E 005°18'3 1.0 040 / 61016.027.0 16.0 6.620.0
2017-Sep-18 06:58N 43°21' E 005°20'0 0.0
2017-Sep-18 06:25N 43°21' E 005°20'0 0.0
2017-Sep-18 05:55N 43°21' E 005°20'0 0.3
2017-Sep-18 05:30N 43°21' E 005°20'2 3.2
2017-Sep-18 05:00N 43°21' E 005°18'4 8.8
2017-Sep-18 04:30N 43°17' E 005°14'4 8.6
2017-Sep-18 04:00N 43°14' E 005°11'4 8.6
2017-Sep-18 03:31N 43°10' E 005°08'4 8.3
2017-Sep-18 03:00N 43°07' E 005°05'175.4
2017-Sep-18 03:00N 43°06' E 005°06'4 9.1 300 / 111018.010.8 15.4 16.7
2017-Sep-18 02:30N 43°04' E 005°01'4 8.2
2017-Sep-18 02:00N 43°00' E 004°58'7506.1
2017-Sep-18 02:00N 42°54' E 004°54'3 5.7 310 / 171018.010.8 16.010.817.1
2017-Sep-18 01:30N 42°57' E 004°55'4 8.4
2017-Sep-18 01:00N 42°53' E 004°52'4 8.3
2017-Sep-18 00:30N 42°50' E 004°49'4 8.6
2017-Sep-18 00:00N 42°46' E 004°45'4 8.5
2017-Sep-17 23:30N 42°42' E 004°42'4 8.4
2017-Sep-17 23:00N 42°39' E 004°39'5 8.9
2017-Sep-17 22:27N 42°35' E 004°36'613.8
2017-Sep-17 22:00N 42°30' E 004°30'35 8.7 300 / 71018.027.0 17.0 7.923.0
2017-Sep-17 18:00N 42°00' E 004°06'22 7.5 090 / 151017.027.0 18.7 20.4
2017-Sep-17 15:00N 41°42' E 003°48'28 9.2 230 / 151017.027.0 21.3 23.1
2017-Sep-17 12:00N 41°18' E 003°30'15 7.1 260 / 81018.027.0 24.8 7.524.5
2017-Sep-17 09:52N 41°05' E 003°19'3 8.3
2017-Sep-17 09:30N 41°03' E 003°17'4 8.4
2017-Sep-17 09:00N 40°59' E 003°14'4 8.6
2017-Sep-17 08:30N 40°56' E 003°11'4 8.6
2017-Sep-17 08:00N 40°52' E 003°08'4 8.4
2017-Sep-17 07:30N 40°48' E 003°05'4 8.4
2017-Sep-17 07:00N 40°45' E 003°02'3315.3
2017-Sep-17 07:00N 40°42' E 003°00'1 2.4 300 / 161016.010.8 20.0 1.918.0
2017-Sep-17 06:30N 40°41' E 002°59'4 8.4
2017-Sep-17 06:00N 40°38' E 002°56'4 8.5
2017-Sep-17 05:30N 40°34' E 002°53'4 8.5
2017-Sep-17 05:00N 40°31' E 002°50'1108.8
2017-Sep-17 05:00N 40°30' E 002°48'3 6.6 300 / 221017.027.0 20.3 25.5
2017-Sep-17 04:30N 40°27' E 002°47'4 8.4
2017-Sep-17 04:00N 40°23' E 002°44'4 8.5
2017-Sep-17 03:30N 40°20' E 002°41'4 8.4
2017-Sep-17 03:00N 40°16' E 002°38'5326.0
2017-Sep-17 03:00N 40°12' E 002°36'1 2.5 270 / 181017.027.0 21.0 25.1
2017-Sep-17 02:30N 40°13' E 002°35'4 8.4
2017-Sep-17 02:00N 40°09' E 002°32'4 8.5
2017-Sep-17 01:31N 40°06' E 002°29'4 8.4
2017-Sep-17 01:00N 40°02' E 002°26'10880.0
2017-Sep-17 01:00N 39°54' E 002°18'612.1 280 / 141018.010.8 21.210.725.5
2017-Sep-17 00:31N 39°59' E 002°23'4 8.5
2017-Sep-17 00:01N 39°55' E 002°20'4 8.5
2017-Sep-16 23:30N 39°51' E 002°17'4 8.3
2017-Sep-16 23:01N 39°48' E 002°14'4 8.5
2017-Sep-16 22:30N 39°44' E 002°11'5 8.8
2017-Sep-16 21:56N 39°40' E 002°07'4 8.7
2017-Sep-16 21:30N 39°37' E 002°05'4 8.8
2017-Sep-16 21:01N 39°33' E 002°02'3185.6
2017-Sep-16 21:00N 39°36' E 002°00'713.4 240 / 61015.027.0 20.011.619.0
2017-Sep-16 20:30N 39°29' E 001°59'5 8.7
2017-Sep-16 19:58N 39°25' E 001°56'4 8.7
2017-Sep-16 19:30N 39°21' E 001°54'4 8.8
2017-Sep-16 19:01N 39°18' E 001°52'4 8.4
2017-Sep-16 18:31N 39°14' E 001°49'4 8.8
2017-Sep-16 18:01N 39°10' E 001°47'4 8.6
2017-Sep-16 17:30N 39°06' E 001°45'4 8.4
2017-Sep-16 17:00N 39°02' E 001°42'4 8.4
2017-Sep-16 16:30N 38°58' E 001°40'4 8.3
2017-Sep-16 16:00N 38°56' E 001°35'5343.5
2017-Sep-16 16:00N 38°54' E 001°30'1 1.4 050 / 121014.027.0 19.5 24.6
2017-Sep-16 15:30N 38°55' E 001°30'3 5.4
2017-Sep-16 15:00N 38°54' E 001°27'0 0.3
2017-Sep-16 14:30N 38°54' E 001°27'0 0.0
2017-Sep-16 14:00N 38°54' E 001°27'0 0.0
2017-Sep-16 13:30N 38°54' E 001°27'0 0.0
2017-Sep-16 13:00N 38°54' E 001°27'0 0.0
2017-Sep-16 12:30N 38°54' E 001°27'0 0.0
2017-Sep-16 12:00N 38°54' E 001°27'2202.1
2017-Sep-16 12:00N 38°54' E 001°24'2 4.7 010 / 81014.010.8 18.114.725.0
2017-Sep-16 11:30N 38°54' E 001°27'0 0.0
2017-Sep-16 11:00N 38°54' E 001°27'0 0.0
2017-Sep-16 10:30N 38°54' E 001°27'2 4.5
2017-Sep-16 10:00N 38°54' E 001°24'260.0 010 / 61014.0 2.2 17.015.419.0
2017-Sep-16 09:57N 38°54' E 001°27'0 0.0
2017-Sep-16 09:30N 38°54' E 001°27'0 0.0
2017-Sep-16 09:00N 38°54' E 001°27'0 0.0
2017-Sep-16 08:30N 38°54' E 001°27'0 0.0
2017-Sep-16 08:00N 38°54' E 001°27'0 0.0
2017-Sep-16 07:30N 38°54' E 001°27'0 0.0
2017-Sep-16 07:00N 38°54' E 001°27'0 0.0
2017-Sep-16 06:30N 38°54' E 001°27'0 0.0
2017-Sep-16 06:00N 38°54' E 001°27'2192.7
2017-Sep-16 06:00N 38°54' E 001°24'2 4.7 010 / 61013.0 5.4 18.9 25.0
2017-Sep-16 05:30N 38°54' E 001°27'0 0.0
2017-Sep-16 05:00N 38°54' E 001°27'2236.8
2017-Sep-16 05:00N 38°54' E 001°24'2 4.7 010 / 71013.0 5.4 19.3 25.0
2017-Sep-16 04:30N 38°54' E 001°27'0 0.0
2017-Sep-16 03:54N 38°54' E 001°27'0 0.0
2017-Sep-16 03:30N 38°54' E 001°27'0 0.0
2017-Sep-16 02:57N 38°54' E 001°27'0 0.0
2017-Sep-16 02:30N 38°54' E 001°27'0 0.0
2017-Sep-16 02:00N 38°54' E 001°27'0 0.0
2017-Sep-16 01:30N 38°54' E 001°27'0 0.0
2017-Sep-16 01:00N 38°54' E 001°27'0 0.0
2017-Sep-16 00:30N 38°54' E 001°27'0 0.0
2017-Sep-16 00:00N 38°54' E 001°27'2230.2
2017-Sep-16 00:00N 38°54' E 001°24'2 4.7 020 / 201013.010.8 18.614.425.1
2017-Sep-15 23:30N 38°54' E 001°27'0 0.0
2017-Sep-15 23:00N 38°54' E 001°27'0 0.0
2017-Sep-15 22:30N 38°54' E 001°27'0 0.0
2017-Sep-15 22:00N 38°54' E 001°27'0 0.0
2017-Sep-15 21:30N 38°54' E 001°27'0 0.0
2017-Sep-15 21:00N 38°54' E 001°27'0 0.0
2017-Sep-15 20:30N 38°54' E 001°27'0 0.0
2017-Sep-15 20:00N 38°54' E 001°27'0 0.0
2017-Sep-15 19:30N 38°54' E 001°27'0 0.0
2017-Sep-15 19:00N 38°54' E 001°27'0 0.0
2017-Sep-15 18:30N 38°54' E 001°27'0 0.0
2017-Sep-15 18:00N 38°54' E 001°27'2236.8
2017-Sep-15 18:00N 38°54' E 001°24'2 4.7 030 / 171011.0 21.0 25.4
2017-Sep-15 17:30N 38°54' E 001°27'0 0.0
2017-Sep-15 17:00N 38°54' E 001°27'13312942.0
2017-Sep-15 17:00N 38°54' W 001°24'133271.6 050 / 91011.0 24.0 20.0
2017-Sep-15 16:30N 38°54' E 001°27'0 0.0
2017-Sep-15 16:00N 38°54' E 001°27'0 0.0
2017-Sep-15 15:30N 38°54' E 001°27'0 0.0
2017-Sep-15 15:00N 38°54' E 001°27'0 0.0
2017-Sep-15 14:30N 38°54' E 001°27'0 0.0
2017-Sep-15 14:00N 38°54' E 001°27'0 0.0
2017-Sep-15 13:30N 38°54' E 001°27'0 0.0
2017-Sep-15 13:00N 38°54' E 001°27'0 0.0
2017-Sep-15 12:30N 38°54' E 001°27'0 0.0
2017-Sep-15 12:00N 38°54' E 001°27'2236.8
2017-Sep-15 12:00N 38°54' E 001°24'2 4.7 170 / 91011.027.0 25.319.025.4
2017-Sep-15 11:30N 38°54' E 001°27'0 0.0
2017-Sep-15 10:57N 38°54' E 001°27'0 0.0
2017-Sep-15 10:30N 38°54' E 001°27'0 0.0
2017-Sep-15 10:00N 38°54' E 001°27'2180.1
2017-Sep-15 10:00N 38°54' E 001°24'2 4.7 170 / 111012.0 5.4 24.019.619.0
2017-Sep-15 09:30N 38°54' E 001°27'0 0.0
2017-Sep-15 09:00N 38°54' E 001°27'0 0.0
2017-Sep-15 08:30N 38°54' E 001°27'0 0.0
2017-Sep-15 08:00N 38°54' E 001°27'0 0.0
2017-Sep-15 07:30N 38°54' E 001°27'0 0.0
2017-Sep-15 07:00N 38°54' E 001°27'0 0.0
2017-Sep-15 06:30N 38°54' E 001°27'0 0.0
2017-Sep-15 05:54N 38°54' E 001°27'0 0.1
2017-Sep-15 05:29N 38°54' E 001°27'1 2.2
2017-Sep-15 05:00N 38°54' E 001°28'4 8.3
2017-Sep-15 04:30N 38°55' E 001°33'4 8.0
2017-Sep-15 04:00N 38°57' E 001°38'5 8.6
2017-Sep-15 03:27N 39°01' E 001°41'4 8.9
2017-Sep-15 03:00N 39°04' E 001°44'7454.5
2017-Sep-15 03:00N 39°00' E 001°36'1121.9 110 / 191015.0 5.4 23.7 24.8
2017-Sep-15 02:30N 39°08' E 001°45'5 9.0
2017-Sep-15 02:00N 39°13' E 001°45'4 8.9
2017-Sep-15 01:30N 39°17' E 001°47'510.3
2017-Sep-15 00:59N 39°22' E 001°48'612.8
2017-Sep-15 00:30N 39°28' E 001°48'612.7
2017-Sep-15 00:00N 39°35' E 001°50'5668.0
2017-Sep-15 00:00N 39°30' E 001°48'1122.8 090 / 301015.0 5.4 22.320.425.7
2017-Sep-14 23:30N 39°41' E 001°51'612.4
2017-Sep-14 23:00N 39°47' E 001°52'612.7
2017-Sep-14 22:30N 39°54' E 001°53'612.4
2017-Sep-14 22:00N 39°60' E 001°54'032.3
2017-Sep-14 22:00N 40°00' E 001°54'611.9 090 / 391015.0 5.4 22.015.819.0
2017-Sep-14 21:30N 40°06' E 001°56'612.4
2017-Sep-14 21:00N 40°12' E 001°57'612.4
2017-Sep-14 20:30N 40°18' E 001°59'612.4
2017-Sep-14 20:00N 40°24' E 001°60'612.5
2017-Sep-14 19:30N 40°30' E 002°01'712.5
2017-Sep-14 18:58N 40°37' E 002°02'612.5
2017-Sep-14 18:30N 40°43' E 002°04'612.7
2017-Sep-14 18:00N 40°49' E 002°05'4240.5
2017-Sep-14 18:00N 40°48' E 002°00'917.1 090 / 391015.0 5.4 21.0 25.4
2017-Sep-14 17:29N 40°55' E 002°06'612.7
2017-Sep-14 17:00N 41°01' E 002°07'612.4
2017-Sep-14 16:30N 41°07' E 002°09'612.2
2017-Sep-14 16:00N 41°13' E 002°10'5 1.3
2017-Sep-14 12:00N 41°18' E 002°06'0 0.0 170 / 171016.027.0 23.921.225.8
2017-Sep-14 10:00N 41°18' E 002°06'5 0.9 210 / 71015.027.0 24.019.620.0
2017-Sep-14 04:21N 41°22' E 002°11'0 0.6
2017-Sep-14 04:00N 41°22' E 002°11'3 5.5
2017-Sep-14 03:23N 41°18' E 002°10'1 2.3
2017-Sep-14 03:00N 41°18' E 002°11'3 5.6
2017-Sep-14 02:30N 41°15' E 002°10'815.4
2017-Sep-14 02:00N 41°08' E 002°06'715.1
2017-Sep-14 01:31N 41°03' E 001°59'815.3
2017-Sep-14 01:01N 40°56' E 001°53'815.4
2017-Sep-14 00:30N 40°50' E 001°47'815.4
2017-Sep-14 00:00N 40°44' E 001°41'2123.5
2017-Sep-14 00:00N 40°42' E 001°42'715.3 210 / 151019.010.8 23.619.824.2
2017-Sep-13 23:30N 40°39' E 001°33'815.7
2017-Sep-13 23:00N 40°34' E 001°25'815.3
2017-Sep-13 22:30N 40°29' E 001°17'815.6
2017-Sep-13 22:00N 40°24' E 001°09'71189.3
2017-Sep-13 22:00N 40°18' E 001°06'4 8.0 200 / 141019.027.0 23.018.517.0
2017-Sep-13 21:30N 40°19' E 001°01'815.6
2017-Sep-13 21:00N 40°14' E 000°53'815.6
2017-Sep-13 20:30N 40°10' E 000°45'815.8
2017-Sep-13 20:00N 40°04' E 000°38'815.8
2017-Sep-13 19:30N 39°59' E 000°30'816.2
2017-Sep-13 19:00N 39°54' E 000°22'815.8
2017-Sep-13 18:30N 39°48' E 000°14'815.8
2017-Sep-13 18:00N 39°43' E 000°07'1413.8
2017-Sep-13 17:00N 39°30' E 000°00'15 3.0 140 / 241020.010.8 24.0 26.0
2017-Sep-13 12:00N 39°24' W 000°18'28 6.9 140 / 121023.027.0 24.018.026.8
2017-Sep-13 08:00N 39°00' E 000°00'3015.2 360 / 51023.027.0 23.015.219.0
2017-Sep-13 06:00N 38°36' W 000°24'3234.2 340 / 61023.0 22.9 22.5
2017-Sep-13 05:04N 38°27' E 000°15'216.2
2017-Sep-13 04:57N 38°25' E 000°14'816.3
2017-Sep-13 04:26N 38°18' E 000°07'819.6
2017-Sep-13 04:00N 38°11' E 000°02'1121.3
2017-Sep-13 03:30N 38°03' W 000°06'1021.0
2017-Sep-13 03:00N 37°54' W 000°13'6487.3
2017-Sep-13 03:00N 37°48' W 000°12'714.7 040 / 111022.027.0 23.6 25.2
2017-Sep-13 02:30N 37°45' W 000°20'1020.7
2017-Sep-13 02:00N 37°36' W 000°28'1020.5
2017-Sep-13 01:30N 37°28' W 000°36'1020.7
2017-Sep-13 01:00N 37°22' W 000°46'1220.9
2017-Sep-13 00:26N 37°14' W 000°57'921.0
2017-Sep-13 00:00N 37°08' W 001°06'5345.4
2017-Sep-13 00:00N 37°06' W 001°00'6421.3 040 10.8
2017-Sep-12 21:00N 36°24' W 002°00'6822.6 040 / 221017.027.0 23.020.117.0
2017-Sep-12 18:00N 36°30' W 003°24'3919.5 110 / 91017.010.8 23.1 23.2
2017-Sep-12 16:00N 36°36' W 004°12'11 2.8 060 / 101016.010.8 26.1 21.9
2017-Sep-12 12:00N 36°42' W 004°24'12 1.5 080 / 51016.027.0 22.218.921.7
2017-Sep-12 04:00N 36°30' W 004°24'1515.4 060 / 71013.027.0 22.0 21.0
2017-Sep-12 03:00N 36°18' W 004°36'1517.4 270 / 131014.027.0 21.4 21.0
2017-Sep-12 02:06N 36°11' W 004°53'214.8
2017-Sep-12 02:00N 36°10' W 004°55'714.7
2017-Sep-12 01:30N 36°06' W 005°02'714.7
2017-Sep-12 01:00N 36°03' W 005°10'714.9
2017-Sep-12 00:30N 35°59' W 005°18'815.1
2017-Sep-12 00:00N 35°57' W 005°27'4244.6
2017-Sep-12 00:00N 35°54' W 005°24'1119.0 1014.0 5.4 21.316.222.0
2017-Sep-11 23:26N 35°54' W 005°37'1514.9
2017-Sep-11 22:26N 35°54' W 005°55'919.2
2017-Sep-11 22:00N 35°54' W 006°06'36 3.0 340 / 111013.027.0 24.010.518.0
2017-Sep-11 10:00N 36°30' W 006°12'5 2.0 100 / 11015.027.0 24.0 8.318.0
2017-Sep-11 07:40N 36°32' W 006°17'0 0.8
2017-Sep-11 07:25N 36°32' W 006°17'3012.3
2017-Sep-11 05:00N 36°30' W 006°54'6100.4 360 / 14 27.0 21.5 22.3
2017-Sep-11 04:56N 36°35' W 006°58'715.6
2017-Sep-11 04:29N 36°35' W 007°07'1016.1
2017-Sep-11 03:52N 36°35' W 007°19'716.3
2017-Sep-11 03:24N 36°34' W 007°28'511.3
2017-Sep-11 03:00N 36°30' W 007°30'71814.8 010 / 231015.027.0 21.3 22.1
2017-Sep-11 02:59N 36°34' W 007°36'1416.3
2017-Sep-11 02:08N 36°33' W 007°54'316.3
2017-Sep-11 01:57N 36°33' W 007°57'815.9
2017-Sep-11 01:25N 36°33' W 008°08'716.2
2017-Sep-11 00:59N 36°31' W 008°17'1019.4
2017-Sep-11 00:30N 36°32' W 008°28'1020.6
2017-Sep-11 00:01N 36°32' W 008°41'4264.7
2017-Sep-11 00:00N 36°30' W 008°36'1529.2 340 / 231016.0 5.4 18.114.719.7
2017-Sep-10 23:28N 36°32' W 008°55'1021.1
2017-Sep-10 23:00N 36°32' W 009°07'1120.8
2017-Sep-10 22:28N 36°37' W 009°20'3 7.0
2017-Sep-10 22:00N 36°36' W 009°24'10185.6 360 / 301016.010.8 18.014.817.0
2017-Sep-10 21:56N 36°45' W 009°29'1321.0
2017-Sep-10 21:20N 36°57' W 009°35'721.2
2017-Sep-10 21:00N 37°03' W 009°35'1121.3
2017-Sep-10 20:30N 37°14' W 009°34'1121.1
2017-Sep-10 20:00N 37°24' W 009°33'1122.0
2017-Sep-10 19:31N 37°35' W 009°31'1121.8
2017-Sep-10 19:00N 37°46' W 009°30'5313.8
2017-Sep-10 19:00N 37°48' W 009°24'1020.1 350 / 271018.0 17.3 19.1
2017-Sep-10 18:31N 37°57' W 009°29'1121.3
2017-Sep-10 18:00N 38°08' W 009°28'1121.6
2017-Sep-10 17:30N 38°18' W 009°27'1020.8
2017-Sep-10 17:00N 38°29' W 009°25'11652.5
2017-Sep-10 17:00N 38°18' W 009°24'2041.3 340 / 251018.010.8 17.1 17.7
2017-Sep-10 16:31N 38°38' W 009°21'714.0
2017-Sep-10 16:00N 38°41' W 009°13'5 9.4
2017-Sep-10 15:30N 38°43' W 009°07'0 0.1
2017-Sep-10 14:59N 38°43' W 009°08'0 0.0
2017-Sep-10 13:59N 38°43' W 009°08'0 0.0
2017-Sep-10 13:26N 38°43' W 009°08'0 0.0
2017-Sep-10 12:59N 38°43' W 009°08'0 0.0
2017-Sep-10 12:29N 38°43' W 009°08'1 2.7
2017-Sep-10 12:00N 38°42' W 009°06'184.3 320 / 51019.0 23.510.921.2
2017-Sep-10 11:59N 38°43' W 009°08'0 0.0
2017-Sep-10 11:26N 38°43' W 009°08'0 0.0
2017-Sep-10 10:59N 38°43' W 009°08'0 0.0
2017-Sep-10 10:29N 38°43' W 009°08'0 0.0
2017-Sep-10 09:59N 38°43' W 009°08'0 0.0
2017-Sep-10 09:28N 38°43' W 009°08'0 0.0
2017-Sep-10 09:00N 38°43' W 009°08'0 0.0
2017-Sep-10 08:30N 38°43' W 009°08'0 0.0
2017-Sep-10 08:00N 38°43' W 009°08'0 0.0
2017-Sep-10 07:28N 38°43' W 009°08'0 0.0
2017-Sep-10 06:58N 38°43' W 009°08'0 0.0
2017-Sep-10 06:30N 38°43' W 009°08'0 0.0
2017-Sep-10 06:00N 38°43' W 009°08'1121.1
2017-Sep-10 06:00N 38°42' W 009°06'1 2.6 360 / 71018.010.8 16.5 19.6
2017-Sep-10 05:29N 38°43' W 009°08'1 2.7
2017-Sep-10 05:00N 38°42' W 009°06'151.4 330 / 21018.010.8 16.4 20.2
2017-Sep-10 04:58N 38°43' W 009°08'0 0.0
2017-Sep-10 04:28N 38°43' W 009°08'0 0.0
2017-Sep-10 03:59N 38°43' W 009°08'0 0.0
2017-Sep-10 03:30N 38°43' W 009°08'0 0.0
2017-Sep-10 02:59N 38°43' W 009°08'0 0.0
2017-Sep-10 02:28N 38°43' W 009°08'0 0.0
2017-Sep-10 02:00N 38°43' W 009°08'0 0.0
2017-Sep-10 01:29N 38°43' W 009°08'0 0.0
2017-Sep-10 00:59N 38°43' W 009°08'  
Track history (hours):
 
Tides and Currents Weather Stations Pressure Air Temp Water Temp Dewpoint Dewpoint Depression Visibility Wind Speed Wind Dir Waves Ship Positions

Celebrity Silhouette

Last reported at 2017-Sep-20 00:31 UTC. Time now 2017-Sep-20 00:34 UTC.
Position N 43°18' E 007°22'.

Length 319 m; draft 8.6 m.

Type: Passenger vessel. MMSI: 248939000.

Date/timePositionNaut miles runAvg speedWind from/ knotsBaromVisibWave heightAir tempDewpointWater temp
2017-Sep-20 00:31N 43°18' E 007°22'3 6.4
2017-Sep-20 00:01N 43°16' E 007°18'4257.1
2017-Sep-20 00:00N 43°12' E 007°18'4 6.6 280 / 101014.010.8 19.611.920.3
2017-Sep-19 23:26N 43°14' E 007°14'3 6.7
2017-Sep-19 22:56N 43°13' E 007°10'3 6.7
2017-Sep-19 22:31N 43°12' E 007°06'3 6.8
2017-Sep-19 22:00N 43°15' E 007°05'2 4.1
2017-Sep-19 21:30N 43°17' E 007°05'2 4.0
2017-Sep-19 20:57N 43°20' E 007°04'2 3.9
2017-Sep-19 20:30N 43°21' E 007°04'2 3.5
2017-Sep-19 19:59N 43°23' E 007°03'2 3.7
2017-Sep-19 19:30N 43°25' E 007°02'2 4.4
2017-Sep-19 19:00N 43°27' E 007°02'2 4.6
2017-Sep-19 18:30N 43°29' E 007°01'2 4.5
2017-Sep-19 18:00N 43°31' E 007°01'1 1.9
2017-Sep-19 17:30N 43°32' E 007°01'0 0.1
2017-Sep-19 17:00N 43°32' E 007°01'0 0.1
2017-Sep-19 16:30N 43°32' E 007°01'0 0.1
2017-Sep-19 16:01N 43°32' E 007°01'2135.5
2017-Sep-19 16:00N 43°30' E 007°00'2 4.7 030 / 161014.0 5.4 18.4 17.9
2017-Sep-19 15:31N 43°32' E 007°01'0 0.1
2017-Sep-19 15:01N 43°32' E 007°01'0 0.0
2017-Sep-19 14:31N 43°32' E 007°01'0 0.1
2017-Sep-19 14:00N 43°32' E 007°01'0 0.1
2017-Sep-19 13:31N 43°32' E 007°01'0 0.0
2017-Sep-19 13:01N 43°32' E 007°01'0 0.0
2017-Sep-19 12:31N 43°32' E 007°01'0 0.0
2017-Sep-19 12:01N 43°32' E 007°01'2140.9
2017-Sep-19 12:00N 43°30' E 007°00'2 4.9 110 / 71011.010.8 24.516.018.3
2017-Sep-19 11:31N 43°32' E 007°01'0 0.0
2017-Sep-19 11:01N 43°32' E 007°01'0 0.0
2017-Sep-19 10:31N 43°32' E 007°01'0 0.0
2017-Sep-19 10:01N 43°32' E 007°01'2142.7
2017-Sep-19 10:00N 43°30' E 007°00'2 4.9 230 / 51010.027.0 26.0 0.119.0
2017-Sep-19 09:31N 43°32' E 007°01'0 0.0
2017-Sep-19 09:00N 43°32' E 007°01'0 0.0
2017-Sep-19 08:30N 43°32' E 007°01'0 0.0
2017-Sep-19 08:00N 43°32' E 007°01'0 0.0
2017-Sep-19 07:30N 43°32' E 007°01'0 0.0
2017-Sep-19 07:00N 43°32' E 007°01'0 0.0
2017-Sep-19 06:30N 43°32' E 007°01'0 0.0
2017-Sep-19 06:00N 43°32' E 007°01'0 0.0
2017-Sep-19 05:30N 43°32' E 007°01'0 0.0
2017-Sep-19 05:00N 43°32' E 007°01'2166.5
2017-Sep-19 05:00N 43°30' E 007°00'2 4.8 300 / 61015.027.0 13.5 17.9
2017-Sep-19 04:30N 43°32' E 007°01'2 3.9
2017-Sep-19 04:00N 43°30' E 007°00'4 7.1
2017-Sep-19 03:30N 43°27' E 006°59'30 8.4
2017-Sep-19 00:00N 43°00' E 006°42'40 9.6 280 / 301014.0 5.4 17.3 9.721.4
2017-Sep-18 19:48N 42°57' E 005°47'617.5
2017-Sep-18 19:27N 42°59' E 005°39'817.5
2017-Sep-18 19:00N 43°00' E 005°28'917.5
2017-Sep-18 18:30N 43°04' E 005°17'917.6
2017-Sep-18 18:00N 43°10' E 005°09'816.6
2017-Sep-18 17:30N 43°17' E 005°14'510.7
2017-Sep-18 17:00N 43°21' E 005°20'3 1.5
2017-Sep-18 15:00N 43°18' E 005°18'0 0.0 230 / 101017.027.0 15.3 16.6
2017-Sep-18 12:00N 43°18' E 005°18'0 0.0 210 / 31017.0 5.4 21.012.816.6
2017-Sep-18 10:00N 43°18' E 005°18'3 1.0 040 / 61016.027.0 16.0 6.620.0
2017-Sep-18 06:58N 43°21' E 005°20'0 0.0
2017-Sep-18 06:25N 43°21' E 005°20'0 0.0
2017-Sep-18 05:55N 43°21' E 005°20'0 0.3
2017-Sep-18 05:30N 43°21' E 005°20'2 3.2
2017-Sep-18 05:00N 43°21' E 005°18'4 8.8
2017-Sep-18 04:30N 43°17' E 005°14'4 8.6
2017-Sep-18 04:00N 43°14' E 005°11'4 8.6
2017-Sep-18 03:31N 43°10' E 005°08'4 8.3
2017-Sep-18 03:00N 43°07' E 005°05'175.4
2017-Sep-18 03:00N 43°06' E 005°06'4 9.1 300 / 111018.010.8 15.4 16.7
2017-Sep-18 02:30N 43°04' E 005°01'4 8.2
2017-Sep-18 02:00N 43°00' E 004°58'7506.1
2017-Sep-18 02:00N 42°54' E 004°54'3 5.7 310 / 171018.010.8 16.010.817.1
2017-Sep-18 01:30N 42°57' E 004°55'4 8.4
2017-Sep-18 01:00N 42°53' E 004°52'4 8.3
2017-Sep-18 00:30N 42°50' E 004°49'4 8.6
2017-Sep-18 00:00N 42°46' E 004°45'4 8.5
2017-Sep-17 23:30N 42°42' E 004°42'4 8.4
2017-Sep-17 23:00N 42°39' E 004°39'5 8.9
2017-Sep-17 22:27N 42°35' E 004°36'613.8
2017-Sep-17 22:00N 42°30' E 004°30'35 8.7 300 / 71018.027.0 17.0 7.923.0
2017-Sep-17 18:00N 42°00' E 004°06'22 7.5 090 / 151017.027.0 18.7 20.4
2017-Sep-17 15:00N 41°42' E 003°48'28 9.2 230 / 151017.027.0 21.3 23.1
2017-Sep-17 12:00N 41°18' E 003°30'15 7.1 260 / 81018.027.0 24.8 7.524.5
2017-Sep-17 09:52N 41°05' E 003°19'3 8.3
2017-Sep-17 09:30N 41°03' E 003°17'4 8.4
2017-Sep-17 09:00N 40°59' E 003°14'4 8.6
2017-Sep-17 08:30N 40°56' E 003°11'4 8.6
2017-Sep-17 08:00N 40°52' E 003°08'4 8.4
2017-Sep-17 07:30N 40°48' E 003°05'4 8.4
2017-Sep-17 07:00N 40°45' E 003°02'3315.3
2017-Sep-17 07:00N 40°42' E 003°00'1 2.4 300 / 161016.010.8 20.0 1.918.0
2017-Sep-17 06:30N 40°41' E 002°59'4 8.4
2017-Sep-17 06:00N 40°38' E 002°56'4 8.5
2017-Sep-17 05:30N 40°34' E 002°53'4 8.5
2017-Sep-17 05:00N 40°31' E 002°50'1108.8
2017-Sep-17 05:00N 40°30' E 002°48'3 6.6 300 / 221017.027.0 20.3 25.5
2017-Sep-17 04:30N 40°27' E 002°47'4 8.4
2017-Sep-17 04:00N 40°23' E 002°44'4 8.5
2017-Sep-17 03:30N 40°20' E 002°41'4 8.4
2017-Sep-17 03:00N 40°16' E 002°38'5326.0
2017-Sep-17 03:00N 40°12' E 002°36'1 2.5 270 / 181017.027.0 21.0 25.1
2017-Sep-17 02:30N 40°13' E 002°35'4 8.4
2017-Sep-17 02:00N 40°09' E 002°32'4 8.5
2017-Sep-17 01:31N 40°06' E 002°29'4 8.4
2017-Sep-17 01:00N 40°02' E 002°26'10880.0
2017-Sep-17 01:00N 39°54' E 002°18'612.1 280 / 141018.010.8 21.210.725.5
2017-Sep-17 00:31N 39°59' E 002°23'4 8.5
2017-Sep-17 00:01N 39°55' E 002°20'4 8.5
2017-Sep-16 23:30N 39°51' E 002°17'4 8.3
2017-Sep-16 23:01N 39°48' E 002°14'4 8.5
2017-Sep-16 22:30N 39°44' E 002°11'5 8.8
2017-Sep-16 21:56N 39°40' E 002°07'4 8.7
2017-Sep-16 21:30N 39°37' E 002°05'4 8.8
2017-Sep-16 21:01N 39°33' E 002°02'3185.6
2017-Sep-16 21:00N 39°36' E 002°00'713.4 240 / 61015.027.0 20.011.619.0
2017-Sep-16 20:30N 39°29' E 001°59'5 8.7
2017-Sep-16 19:58N 39°25' E 001°56'4 8.7
2017-Sep-16 19:30N 39°21' E 001°54'4 8.8
2017-Sep-16 19:01N 39°18' E 001°52'4 8.4
2017-Sep-16 18:31N 39°14' E 001°49'4 8.8
2017-Sep-16 18:01N 39°10' E 001°47'4 8.6
2017-Sep-16 17:30N 39°06' E 001°45'4 8.4
2017-Sep-16 17:00N 39°02' E 001°42'4 8.4
2017-Sep-16 16:30N 38°58' E 001°40'4 8.3
2017-Sep-16 16:00N 38°56' E 001°35'5343.5
2017-Sep-16 16:00N 38°54' E 001°30'1 1.4 050 / 121014.027.0 19.5 24.6
2017-Sep-16 15:30N 38°55' E 001°30'3 5.4
2017-Sep-16 15:00N 38°54' E 001°27'0 0.3
2017-Sep-16 14:30N 38°54' E 001°27'0 0.0
2017-Sep-16 14:00N 38°54' E 001°27'0 0.0
2017-Sep-16 13:30N 38°54' E 001°27'0 0.0
2017-Sep-16 13:00N 38°54' E 001°27'0 0.0
2017-Sep-16 12:30N 38°54' E 001°27'0 0.0
2017-Sep-16 12:00N 38°54' E 001°27'2202.1
2017-Sep-16 12:00N 38°54' E 001°24'2 4.7 010 / 81014.010.8 18.114.725.0
2017-Sep-16 11:30N 38°54' E 001°27'0 0.0
2017-Sep-16 11:00N 38°54' E 001°27'0 0.0
2017-Sep-16 10:30N 38°54' E 001°27'2 4.5
2017-Sep-16 10:00N 38°54' E 001°24'260.0 010 / 61014.0 2.2 17.015.419.0
2017-Sep-16 09:57N 38°54' E 001°27'0 0.0
2017-Sep-16 09:30N 38°54' E 001°27'0 0.0
2017-Sep-16 09:00N 38°54' E 001°27'0 0.0
2017-Sep-16 08:30N 38°54' E 001°27'0 0.0
2017-Sep-16 08:00N 38°54' E 001°27'0 0.0
2017-Sep-16 07:30N 38°54' E 001°27'0 0.0
2017-Sep-16 07:00N 38°54' E 001°27'0 0.0
2017-Sep-16 06:30N 38°54' E 001°27'0 0.0
2017-Sep-16 06:00N 38°54' E 001°27'2192.7
2017-Sep-16 06:00N 38°54' E 001°24'2 4.7 010 / 61013.0 5.4 18.9 25.0
2017-Sep-16 05:30N 38°54' E 001°27'0 0.0
2017-Sep-16 05:00N 38°54' E 001°27'2236.8
2017-Sep-16 05:00N 38°54' E 001°24'2 4.7 010 / 71013.0 5.4 19.3 25.0
2017-Sep-16 04:30N 38°54' E 001°27'0 0.0
2017-Sep-16 03:54N 38°54' E 001°27'0 0.0
2017-Sep-16 03:30N 38°54' E 001°27'0 0.0
2017-Sep-16 02:57N 38°54' E 001°27'0 0.0
2017-Sep-16 02:30N 38°54' E 001°27'0 0.0
2017-Sep-16 02:00N 38°54' E 001°27'0 0.0
2017-Sep-16 01:30N 38°54' E 001°27'0 0.0
2017-Sep-16 01:00N 38°54' E 001°27'0 0.0
2017-Sep-16 00:30N 38°54' E 001°27'0 0.0
2017-Sep-16 00:00N 38°54' E 001°27'2230.2
2017-Sep-16 00:00N 38°54' E 001°24'2 4.7 020 / 201013.010.8 18.614.425.1
2017-Sep-15 23:30N 38°54' E 001°27'0 0.0
2017-Sep-15 23:00N 38°54' E 001°27'0 0.0
2017-Sep-15 22:30N 38°54' E 001°27'0 0.0
2017-Sep-15 22:00N 38°54' E 001°27'0 0.0
2017-Sep-15 21:30N 38°54' E 001°27'0 0.0
2017-Sep-15 21:00N 38°54' E 001°27'0 0.0
2017-Sep-15 20:30N 38°54' E 001°27'0 0.0
2017-Sep-15 20:00N 38°54' E 001°27'0 0.0
2017-Sep-15 19:30N 38°54' E 001°27'0 0.0
2017-Sep-15 19:00N 38°54' E 001°27'0 0.0
2017-Sep-15 18:30N 38°54' E 001°27'0 0.0
2017-Sep-15 18:00N 38°54' E 001°27'2236.8
2017-Sep-15 18:00N 38°54' E 001°24'2 4.7 030 / 171011.0 21.0 25.4
2017-Sep-15 17:30N 38°54' E 001°27'0 0.0
2017-Sep-15 17:00N 38°54' E 001°27'13312942.0
2017-Sep-15 17:00N 38°54' W 001°24'133271.6 050 / 91011.0 24.0 20.0
2017-Sep-15 16:30N 38°54' E 001°27'0 0.0
2017-Sep-15 16:00N 38°54' E 001°27'0 0.0
2017-Sep-15 15:30N 38°54' E 001°27'0 0.0
2017-Sep-15 15:00N 38°54' E 001°27'0 0.0
2017-Sep-15 14:30N 38°54' E 001°27'0 0.0
2017-Sep-15 14:00N 38°54' E 001°27'0 0.0
2017-Sep-15 13:30N 38°54' E 001°27'0 0.0
2017-Sep-15 13:00N 38°54' E 001°27'0 0.0
2017-Sep-15 12:30N 38°54' E 001°27'0 0.0
2017-Sep-15 12:00N 38°54' E 001°27'2236.8
2017-Sep-15 12:00N 38°54' E 001°24'2 4.7 170 / 91011.027.0 25.319.025.4
2017-Sep-15 11:30N 38°54' E 001°27'0 0.0
2017-Sep-15 10:57N 38°54' E 001°27'0 0.0
2017-Sep-15 10:30N 38°54' E 001°27'0 0.0
2017-Sep-15 10:00N 38°54' E 001°27'2180.1
2017-Sep-15 10:00N 38°54' E 001°24'2 4.7 170 / 111012.0 5.4 24.019.619.0
2017-Sep-15 09:30N 38°54' E 001°27'0 0.0
2017-Sep-15 09:00N 38°54' E 001°27'0 0.0
2017-Sep-15 08:30N 38°54' E 001°27'0 0.0
2017-Sep-15 08:00N 38°54' E 001°27'0 0.0
2017-Sep-15 07:30N 38°54' E 001°27'0 0.0
2017-Sep-15 07:00N 38°54' E 001°27'0 0.0
2017-Sep-15 06:30N 38°54' E 001°27'0 0.0
2017-Sep-15 05:54N 38°54' E 001°27'0 0.1
2017-Sep-15 05:29N 38°54' E 001°27'1 2.2
2017-Sep-15 05:00N 38°54' E 001°28'4 8.3
2017-Sep-15 04:30N 38°55' E 001°33'4 8.0
2017-Sep-15 04:00N 38°57' E 001°38'5 8.6
2017-Sep-15 03:27N 39°01' E 001°41'4 8.9
2017-Sep-15 03:00N 39°04' E 001°44'7454.5
2017-Sep-15 03:00N 39°00' E 001°36'1121.9 110 / 191015.0 5.4 23.7 24.8
2017-Sep-15 02:30N 39°08' E 001°45'5 9.0
2017-Sep-15 02:00N 39°13' E 001°45'4 8.9
2017-Sep-15 01:30N 39°17' E 001°47'510.3
2017-Sep-15 00:59N 39°22' E 001°48'612.8
2017-Sep-15 00:30N 39°28' E 001°48'612.7
2017-Sep-15 00:00N 39°35' E 001°50'5668.0
2017-Sep-15 00:00N 39°30' E 001°48'1122.8 090 / 301015.0 5.4 22.320.425.7
2017-Sep-14 23:30N 39°41' E 001°51'612.4
2017-Sep-14 23:00N 39°47' E 001°52'612.7
2017-Sep-14 22:30N 39°54' E 001°53'612.4
2017-Sep-14 22:00N 39°60' E 001°54'032.3
2017-Sep-14 22:00N 40°00' E 001°54'611.9 090 / 391015.0 5.4 22.015.819.0
2017-Sep-14 21:30N 40°06' E 001°56'612.4
2017-Sep-14 21:00N 40°12' E 001°57'612.4
2017-Sep-14 20:30N 40°18' E 001°59'612.4
2017-Sep-14 20:00N 40°24' E 001°60'612.5
2017-Sep-14 19:30N 40°30' E 002°01'712.5
2017-Sep-14 18:58N 40°37' E 002°02'612.5
2017-Sep-14 18:30N 40°43' E 002°04'612.7
2017-Sep-14 18:00N 40°49' E 002°05'4240.5
2017-Sep-14 18:00N 40°48' E 002°00'917.1 090 / 391015.0 5.4 21.0 25.4
2017-Sep-14 17:29N 40°55' E 002°06'612.7
2017-Sep-14 17:00N 41°01' E 002°07'612.4
2017-Sep-14 16:30N 41°07' E 002°09'612.2
2017-Sep-14 16:00N 41°13' E 002°10'5 1.3
2017-Sep-14 12:00N 41°18' E 002°06'0 0.0 170 / 171016.027.0 23.921.225.8
2017-Sep-14 10:00N 41°18' E 002°06'5 0.9 210 / 71015.027.0 24.019.620.0
2017-Sep-14 04:21N 41°22' E 002°11'0 0.6
2017-Sep-14 04:00N 41°22' E 002°11'3 5.5
2017-Sep-14 03:23N 41°18' E 002°10'1 2.3
2017-Sep-14 03:00N 41°18' E 002°11'3 5.6
2017-Sep-14 02:30N 41°15' E 002°10'815.4
2017-Sep-14 02:00N 41°08' E 002°06'715.1
2017-Sep-14 01:31N 41°03' E 001°59'815.3
2017-Sep-14 01:01N 40°56' E 001°53'815.4
2017-Sep-14 00:30N 40°50' E 001°47'815.4
2017-Sep-14 00:00N 40°44' E 001°41'2123.5
2017-Sep-14 00:00N 40°42' E 001°42'715.3 210 / 151019.010.8 23.619.824.2
2017-Sep-13 23:30N 40°39' E 001°33'815.7
2017-Sep-13 23:00N 40°34' E 001°25'815.3
2017-Sep-13 22:30N 40°29' E 001°17'815.6
2017-Sep-13 22:00N 40°24' E 001°09'71189.3
2017-Sep-13 22:00N 40°18' E 001°06'4 8.0 200 / 141019.027.0 23.018.517.0
2017-Sep-13 21:30N 40°19' E 001°01'815.6
2017-Sep-13 21:00N 40°14' E 000°53'815.6
2017-Sep-13 20:30N 40°10' E 000°45'815.8
2017-Sep-13 20:00N 40°04' E 000°38'815.8
2017-Sep-13 19:30N 39°59' E 000°30'816.2
2017-Sep-13 19:00N 39°54' E 000°22'815.8
2017-Sep-13 18:30N 39°48' E 000°14'815.8
2017-Sep-13 18:00N 39°43' E 000°07'1413.8
2017-Sep-13 17:00N 39°30' E 000°00'15 3.0 140 / 241020.010.8 24.0 26.0
2017-Sep-13 12:00N 39°24' W 000°18'28 6.9 140 / 121023.027.0 24.018.026.8
2017-Sep-13 08:00N 39°00' E 000°00'3015.2 360 / 51023.027.0 23.015.219.0
2017-Sep-13 06:00N 38°36' W 000°24'3234.2 340 / 61023.0 22.9 22.5
2017-Sep-13 05:04N 38°27' E 000°15'216.2
2017-Sep-13 04:57N 38°25' E 000°14'816.3
2017-Sep-13 04:26N 38°18' E 000°07'819.6
2017-Sep-13 04:00N 38°11' E 000°02'1121.3
2017-Sep-13 03:30N 38°03' W 000°06'1021.0
2017-Sep-13 03:00N 37°54' W 000°13'6487.3
2017-Sep-13 03:00N 37°48' W 000°12'714.7 040 / 111022.027.0 23.6 25.2
2017-Sep-13 02:30N 37°45' W 000°20'1020.7
2017-Sep-13 02:00N 37°36' W 000°28'1020.5
2017-Sep-13 01:30N 37°28' W 000°36'1020.7
2017-Sep-13 01:00N 37°22' W 000°46'1220.9
2017-Sep-13 00:26N 37°14' W 000°57'921.0
2017-Sep-13 00:00N 37°08' W 001°06'5345.4
2017-Sep-13 00:00N 37°06' W 001°00'6421.3 040 10.8
2017-Sep-12 21:00N 36°24' W 002°00'6822.6 040 / 221017.027.0 23.020.117.0
2017-Sep-12 18:00N 36°30' W 003°24'3919.5 110 / 91017.010.8 23.1 23.2
2017-Sep-12 16:00N 36°36' W 004°12'11 2.8 060 / 101016.010.8 26.1 21.9
2017-Sep-12 12:00N 36°42' W 004°24'12 1.5 080 / 51016.027.0 22.218.921.7
2017-Sep-12 04:00N 36°30' W 004°24'1515.4 060 / 71013.027.0 22.0 21.0
2017-Sep-12 03:00N 36°18' W 004°36'1517.4 270 / 131014.027.0 21.4 21.0
2017-Sep-12 02:06N 36°11' W 004°53'214.8
2017-Sep-12 02:00N 36°10' W 004°55'714.7
2017-Sep-12 01:30N 36°06' W 005°02'714.7
2017-Sep-12 01:00N 36°03' W 005°10'714.9
2017-Sep-12 00:30N 35°59' W 005°18'815.1
2017-Sep-12 00:00N 35°57' W 005°27'4244.6
2017-Sep-12 00:00N 35°54' W 005°24'1119.0 1014.0 5.4 21.316.222.0
2017-Sep-11 23:26N 35°54' W 005°37'1514.9
2017-Sep-11 22:26N 35°54' W 005°55'919.2
2017-Sep-11 22:00N 35°54' W 006°06'36 3.0 340 / 111013.027.0 24.010.518.0
2017-Sep-11 10:00N 36°30' W 006°12'5 2.0 100 / 11015.027.0 24.0 8.318.0
2017-Sep-11 07:40N 36°32' W 006°17'0 0.8
2017-Sep-11 07:25N 36°32' W 006°17'3012.3
2017-Sep-11 05:00N 36°30' W 006°54'6100.4 360 / 14 27.0 21.5 22.3
2017-Sep-11 04:56N 36°35' W 006°58'715.6
2017-Sep-11 04:29N 36°35' W 007°07'1016.1
2017-Sep-11 03:52N 36°35' W 007°19'716.3
2017-Sep-11 03:24N 36°34' W 007°28'511.3
2017-Sep-11 03:00N 36°30' W 007°30'71814.8 010 / 231015.027.0 21.3 22.1
2017-Sep-11 02:59N 36°34' W 007°36'1416.3
2017-Sep-11 02:08N 36°33' W 007°54'316.3
2017-Sep-11 01:57N 36°33' W 007°57'815.9
2017-Sep-11 01:25N 36°33' W 008°08'716.2
2017-Sep-11 00:59N 36°31' W 008°17'1019.4
2017-Sep-11 00:30N 36°32' W 008°28'1020.6
2017-Sep-11 00:01N 36°32' W 008°41'4264.7
2017-Sep-11 00:00N 36°30' W 008°36'1529.2 340 / 231016.0 5.4 18.114.719.7
2017-Sep-10 23:28N 36°32' W 008°55'1021.1
2017-Sep-10 23:00N 36°32' W 009°07'1120.8
2017-Sep-10 22:28N 36°37' W 009°20'3 7.0
2017-Sep-10 22:00N 36°36' W 009°24'10185.6 360 / 301016.010.8 18.014.817.0
2017-Sep-10 21:56N 36°45' W 009°29'1321.0
2017-Sep-10 21:20N 36°57' W 009°35'721.2
2017-Sep-10 21:00N 37°03' W 009°35'1121.3
2017-Sep-10 20:30N 37°14' W 009°34'1121.1
2017-Sep-10 20:00N 37°24' W 009°33'1122.0
2017-Sep-10 19:31N 37°35' W 009°31'1121.8
2017-Sep-10 19:00N 37°46' W 009°30'5313.8
2017-Sep-10 19:00N 37°48' W 009°24'1020.1 350 / 271018.0 17.3 19.1
2017-Sep-10 18:31N 37°57' W 009°29'1121.3
2017-Sep-10 18:00N 38°08' W 009°28'1121.6
2017-Sep-10 17:30N 38°18' W 009°27'1020.8
2017-Sep-10 17:00N 38°29' W 009°25'11652.5
2017-Sep-10 17:00N 38°18' W 009°24'2041.3 340 / 251018.010.8 17.1 17.7
2017-Sep-10 16:31N 38°38' W 009°21'714.0
2017-Sep-10 16:00N 38°41' W 009°13'5 9.4
2017-Sep-10 15:30N 38°43' W 009°07'0 0.1
2017-Sep-10 14:59N 38°43' W 009°08'0 0.0
2017-Sep-10 13:59N 38°43' W 009°08'0 0.0
2017-Sep-10 13:26N 38°43' W 009°08'0 0.0
2017-Sep-10 12:59N 38°43' W 009°08'0 0.0
2017-Sep-10 12:29N 38°43' W 009°08'1 2.7
2017-Sep-10 12:00N 38°42' W 009°06'184.3 320 / 51019.0 23.510.921.2
2017-Sep-10 11:59N 38°43' W 009°08'0 0.0
2017-Sep-10 11:26N 38°43' W 009°08'0 0.0
2017-Sep-10 10:59N 38°43' W 009°08'0 0.0
2017-Sep-10 10:29N 38°43' W 009°08'0 0.0
2017-Sep-10 09:59N 38°43' W 009°08'0 0.0
2017-Sep-10 09:28N 38°43' W 009°08'0 0.0
2017-Sep-10 09:00N 38°43' W 009°08'0 0.0
2017-Sep-10 08:30N 38°43' W 009°08'0 0.0
2017-Sep-10 08:00N 38°43' W 009°08'0 0.0
2017-Sep-10 07:28N 38°43' W 009°08'0 0.0
2017-Sep-10 06:58N 38°43' W 009°08'0 0.0
2017-Sep-10 06:30N 38°43' W 009°08'0 0.0
2017-Sep-10 06:00N 38°43' W 009°08'1121.1
2017-Sep-10 06:00N 38°42' W 009°06'1 2.6 360 / 71018.010.8 16.5 19.6
2017-Sep-10 05:29N 38°43' W 009°08'1 2.7
2017-Sep-10 05:00N 38°42' W 009°06'151.4 330 / 21018.010.8 16.4 20.2
2017-Sep-10 04:58N 38°43' W 009°08'0 0.0
2017-Sep-10 04:28N 38°43' W 009°08'0 0.0
2017-Sep-10 03:59N 38°43' W 009°08'0 0.0
2017-Sep-10 03:30N 38°43' W 009°08'0 0.0
2017-Sep-10 02:59N 38°43' W 009°08'0 0.0
2017-Sep-10 02:28N 38°43' W 009°08'0 0.0
2017-Sep-10 02:00N 38°43' W 009°08'0 0.0
2017-Sep-10 01:29N 38°43' W 009°08'0 0.0
2017-Sep-10 00:59N 38°43' W 009°08'  

Dump ship's entire track history